Main page
METAR-TAF:

METAR-TAF

Airports :

Chios Island National Airport

Chios, Greece

latitude: 38-20N, longitude: 026-08E, elevation: 5 m

Current weather observation

The report was made 37 minutes ago, at 09:50 UTC
Wind 11 kt from the North/Northeast
Temperature 29°C
Humidity 55%
Pressure 1003 hPa
Visibility 10 km or more
no clouds below 1500 m and no cumulonimbus

METAR: LGHI 180950Z 02011KT CAVOK 29/19 Q1003

Time: 13:27 (10:27 UTC)

Forecast

The report was made 2 hours and 27 minutes ago, at 08:00 UTC
Forecast valid from 18 at 09 UTC to 18 at 18 UTC
Wind 13 kt from the North
Visibility 10 km or more
Few clouds at a height of 2500 ft

TAF: LGHI 180800Z 1809/1818 36013KT 9999 FEW025

Weather observations and forecasts of more than 4000 airports (METAR and TAF reports).

The available stations are represented by yellow and red dots on the map.

Hover mouse over dot to see the name of the station.

Then click to see weather observations and forecasts.

To change the map : click on the green buttons with a black cross to zoom in, on the green button with a dash to zoom out, or on the green arrows for adjacent maps.


METAR-TAF: